Time;durP1;ratioP1;P1;durP2;ratioP2;P2;SDS_P1;SDS_P2;PMS_P1;PMS_P2;Temp;Humidity;BMP_temperature;BMP_pressure;BME280_temperature;BME280_humidity;BME280_pressure;Samples;Min_cycle;Max_cycle;Signal;HPM_P1;HPM_P2
2022/08/09 00:00:33;;;;;;;5.88;2.25;;;;;;;;;;4804782;29;20050;-49
2022/08/09 00:03:10;;;;;;;6.10;2.58;;;;;;;;;;4805056;29;20042;-48
2022/08/09 00:06:00;;;;;;;5.38;2.42;;;;;;;;;;4804898;29;20542;-49
2022/08/09 00:08:49;;;;;;;3.70;2.15;;;;;;;;;;4804932;29;20050;-49
2022/08/09 00:11:18;;;;;;;5.07;2.55;;;;;;;;;;4804820;29;20121;-47
2022/08/09 00:13:51;;;;;;;7.00;2.45;;;;;;;;;;4804667;29;20043;-51
2022/08/09 00:16:18;;;;;;;6.03;2.45;;;;;;;;;;4804651;29;20070;-49
2022/08/09 00:19:04;;;;;;;5.25;2.55;;;;;;;;;;4806520;29;20155;-49
2022/08/09 00:21:37;;;;;;;5.05;2.53;;;;;;;;;;4808606;29;20047;-48
2022/08/09 00:24:22;;;;;;;5.20;2.30;;;;;;;;;;4808072;29;20047;-50
2022/08/09 00:26:50;;;;;;;4.90;2.90;;;;;;;;;;4808518;29;20118;-51
2022/08/09 00:29:18;;;;;;;3.85;2.42;;;;;;;;;;4792144;29;20063;-47
2022/08/09 00:32:05;;;;;;;6.13;2.28;;;;;;;;;;4808658;29;20071;-50
2022/08/09 00:34:32;;;;;;;6.65;2.25;;;;;;;;;;4808210;29;20050;-49
2022/08/09 00:37:00;;;;;;;7.72;2.67;;;;;;;;;;4808077;29;20047;-51
2022/08/09 00:39:28;;;;;;;6.57;2.53;;;;;;;;;;4808358;29;20047;-49
2022/08/09 00:42:15;;;;;;;7.95;2.33;;;;;;;;;;4807976;29;20514;-47
2022/08/09 00:45:03;;;;;;;4.47;2.03;;;;;;;;;;4808122;29;20107;-48
2022/08/09 00:47:42;;;;;;;4.53;2.13;;;;;;;;;;4807970;29;20043;-47
2022/08/09 00:50:11;;;;;;;7.18;2.00;;;;;;;;;;4843246;29;20038;-47
2022/08/09 00:52:41;;;;;;;6.22;2.20;;;;;;;;;;4844620;29;20052;-49
2022/08/09 00:55:08;;;;;;;6.32;2.58;;;;;;;;;;4844401;29;20042;-47
2022/08/09 00:57:56;;;;;;;4.05;1.98;;;;;;;;;;4844403;29;20050;-45
2022/08/09 01:00:25;;;;;;;9.98;2.50;;;;;;;;;;4844236;29;20498;-47
2022/08/09 01:03:03;;;;;;;3.33;1.80;;;;;;;;;;4842863;29;20145;-46
2022/08/09 01:05:48;;;;;;;3.67;1.85;;;;;;;;;;4844126;29;20057;-48
2022/08/09 01:08:40;;;;;;;5.70;2.08;;;;;;;;;;4843781;29;20391;-45
2022/08/09 01:11:44;;;;;;;4.95;2.15;;;;;;;;;;4829244;29;20514;-45
2022/08/09 01:14:46;;;;;;;5.15;2.45;;;;;;;;;;4843642;29;20502;-49
2022/08/09 01:17:26;;;;;;;9.45;2.80;;;;;;;;;;4843921;29;20114;-47
2022/08/09 01:20:03;;;;;;;6.80;2.50;;;;;;;;;;4844049;29;20128;-48
2022/08/09 01:22:31;;;;;;;5.05;2.15;;;;;;;;;;4843771;29;20459;-46
2022/08/09 01:25:31;;;;;;;4.05;2.28;;;;;;;;;;4843679;29;20053;-46
2022/08/09 01:28:08;;;;;;;5.38;1.75;;;;;;;;;;4844051;29;20046;-46
2022/08/09 01:30:39;;;;;;;4.70;2.40;;;;;;;;;;4843456;29;20053;-49
2022/08/09 01:33:24;;;;;;;5.40;2.10;;;;;;;;;;4843481;29;20041;-47
2022/08/09 01:36:01;;;;;;;5.13;2.53;;;;;;;;;;4843646;29;20054;-50
2022/08/09 01:38:33;;;;;;;6.65;1.70;;;;;;;;;;4843611;29;20098;-46
2022/08/09 01:41:15;;;;;;;3.35;1.58;;;;;;;;;;4843522;29;20049;-45
2022/08/09 01:43:47;;;;;;;5.43;2.58;;;;;;;;;;4843339;29;20506;-47
2022/08/09 01:46:20;;;;;;;6.20;2.50;;;;;;;;;;4843556;29;20103;-50
2022/08/09 01:48:56;;;;;;;4.57;2.35;;;;;;;;;;4835305;29;20407;-47
2022/08/09 01:51:28;;;;;;;5.35;2.35;;;;;;;;;;4825122;29;20042;-49
2022/08/09 01:54:01;;;;;;;5.88;2.25;;;;;;;;;;4823899;29;20157;-48
2022/08/09 01:56:34;;;;;;;5.57;2.13;;;;;;;;;;4824799;29;20125;-45
2022/08/09 01:59:06;;;;;;;5.72;2.28;;;;;;;;;;4824889;29;20046;-47
2022/08/09 02:01:36;;;;;;;6.70;2.47;;;;;;;;;;4824864;29;20042;-47
2022/08/09 02:04:25;;;;;;;3.65;1.92;;;;;;;;;;4824636;29;20099;-47
2022/08/09 02:07:07;;;;;;;4.75;2.45;;;;;;;;;;4824879;29;20046;-45
2022/08/09 02:10:09;;;;;;;4.43;2.10;;;;;;;;;;4824700;29;20073;-48
2022/08/09 02:12:37;;;;;;;4.38;2.40;;;;;;;;;;4824702;29;20083;-49
2022/08/09 02:15:07;;;;;;;4.50;1.80;;;;;;;;;;4824729;29;20050;-47
2022/08/09 02:17:48;;;;;;;4.13;1.90;;;;;;;;;;4824483;29;20133;-50
2022/08/09 02:20:43;;;;;;;4.63;1.92;;;;;;;;;;4824633;29;20449;-46
2022/08/09 02:23:52;;;;;;;5.03;2.65;;;;;;;;;;4824123;29;20066;-47
2022/08/09 02:26:21;;;;;;;5.72;2.10;;;;;;;;;;4824513;29;20054;-47
2022/08/09 02:28:57;;;;;;;3.50;2.10;;;;;;;;;;4824504;29;20043;-48
2022/08/09 02:31:39;;;;;;;4.13;1.77;;;;;;;;;;4824539;29;20117;-49
2022/08/09 02:34:13;;;;;;;5.70;1.98;;;;;;;;;;4824512;29;20038;-50
2022/08/09 02:37:04;;;;;;;4.88;2.10;;;;;;;;;;4824232;29;20548;-48
2022/08/09 02:39:36;;;;;;;4.47;2.60;;;;;;;;;;4824769;29;20050;-46
2022/08/09 02:42:25;;;;;;;4.20;2.38;;;;;;;;;;4823379;29;20084;-46
2022/08/09 02:45:01;;;;;;;4.80;2.30;;;;;;;;;;4823954;29;20082;-47
2022/08/09 02:47:30;;;;;;;4.30;1.63;;;;;;;;;;4824167;29;20583;-45
2022/08/09 02:50:16;;;;;;;4.80;1.75;;;;;;;;;;4841895;29;20074;-49
2022/08/09 02:52:49;;;;;;;6.07;2.53;;;;;;;;;;4842227;29;20051;-45
2022/08/09 02:55:24;;;;;;;3.97;2.10;;;;;;;;;;4842345;29;20046;-50
2022/08/09 02:58:14;;;;;;;4.93;2.20;;;;;;;;;;4841913;29;20050;-48
2022/08/09 03:01:03;;;;;;;5.88;2.63;;;;;;;;;;4842061;29;20517;-46
2022/08/09 03:03:34;;;;;;;3.70;2.03;;;;;;;;;;4841917;29;20050;-47
2022/08/09 03:06:23;;;;;;;3.30;1.80;;;;;;;;;;4841963;29;20053;-49
2022/08/09 03:08:54;;;;;;;4.45;2.22;;;;;;;;;;4841990;29;20078;-49
2022/08/09 03:11:23;;;;;;;5.45;2.25;;;;;;;;;;4841995;29;20041;-49
2022/08/09 03:14:11;;;;;;;6.22;2.17;;;;;;;;;;4841654;29;20046;-45
2022/08/09 03:16:39;;;;;;;7.07;2.28;;;;;;;;;;4842071;29;20045;-48
2022/08/09 03:19:16;;;;;;;6.25;2.28;;;;;;;;;;4841901;29;20046;-49
2022/08/09 03:22:05;;;;;;;6.20;2.20;;;;;;;;;;4841794;29;20095;-49
2022/08/09 03:24:51;;;;;;;4.57;2.22;;;;;;;;;;4805212;29;20527;-46
2022/08/09 03:27:41;;;;;;;4.63;2.20;;;;;;;;;;4769490;29;20039;-47
2022/08/09 03:30:13;;;;;;;5.28;3.03;;;;;;;;;;4768146;30;20130;-46
2022/08/09 03:33:02;;;;;;;7.20;2.20;;;;;;;;;;4769433;30;20043;-51
2022/08/09 03:35:42;;;;;;;4.03;2.60;;;;;;;;;;4769330;30;20048;-48
2022/08/09 03:38:29;;;;;;;7.32;2.65;;;;;;;;;;4779872;30;20051;-48
2022/08/09 03:40:57;;;;;;;6.18;2.72;;;;;;;;;;4787280;29;20111;-46
2022/08/09 03:43:26;;;;;;;3.92;2.60;;;;;;;;;;4787093;29;20047;-48
2022/08/09 03:46:00;;;;;;;4.68;2.40;;;;;;;;;;4786956;29;20043;-49
2022/08/09 03:48:51;;;;;;;5.43;2.47;;;;;;;;;;4793903;29;20062;-46
2022/08/09 03:51:24;;;;;;;3.95;2.40;;;;;;;;;;4788970;29;20141;-47
2022/08/09 03:54:13;;;;;;;6.05;2.80;;;;;;;;;;4787025;30;20046;-45
2022/08/09 03:56:43;;;;;;;5.40;2.97;;;;;;;;;;4787032;29;20043;-46
2022/08/09 03:59:13;;;;;;;6.13;2.45;;;;;;;;;;4786990;29;20111;-46
2022/08/09 04:01:56;;;;;;;5.75;3.13;;;;;;;;;;4786928;29;20043;-50
2022/08/09 04:04:26;;;;;;;6.20;2.60;;;;;;;;;;4786718;29;20139;-49
2022/08/09 04:07:05;;;;;;;5.63;3.40;;;;;;;;;;4786785;29;20043;-49
2022/08/09 04:09:33;;;;;;;6.38;3.67;;;;;;;;;;4786880;29;20047;-45
2022/08/09 04:12:14;;;;;;;5.32;2.83;;;;;;;;;;4800363;29;20134;-46
2022/08/09 04:14:58;;;;;;;3.92;2.53;;;;;;;;;;4786738;29;20048;-46
2022/08/09 04:17:44;;;;;;;5.18;3.20;;;;;;;;;;4786743;29;20043;-47
2022/08/09 04:20:14;;;;;;;5.70;2.55;;;;;;;;;;4786625;29;20127;-47
2022/08/09 04:22:42;;;;;;;6.70;2.83;;;;;;;;;;4793726;29;20049;-48
2022/08/09 04:25:11;;;;;;;5.32;2.35;;;;;;;;;;4821542;29;20519;-44
2022/08/09 04:27:41;;;;;;;6.38;2.70;;;;;;;;;;4823019;29;20051;-47
2022/08/09 04:30:24;;;;;;;2.80;2.00;;;;;;;;;;4822438;29;20043;-46
2022/08/09 04:32:55;;;;;;;7.68;2.80;;;;;;;;;;4822517;29;20099;-47
2022/08/09 04:35:22;;;;;;;5.00;2.70;;;;;;;;;;4822647;29;20061;-47
2022/08/09 04:37:50;;;;;;;4.35;2.70;;;;;;;;;;4822803;29;20047;-47
2022/08/09 04:40:17;;;;;;;59.92;27.08;;;;;;;;;;4822499;29;20563;-49
2022/08/09 04:43:03;;;;;;;31.27;16.73;;;;;;;;;;4822764;29;20043;-45
2022/08/09 04:45:31;;;;;;;16.40;7.05;;;;;;;;;;4822640;29;20056;-47
2022/08/09 04:48:18;;;;;;;8.57;3.20;;;;;;;;;;4822498;29;20042;-49
2022/08/09 04:50:45;;;;;;;5.57;2.50;;;;;;;;;;4822391;29;20237;-50
2022/08/09 04:53:16;;;;;;;2.70;1.73;;;;;;;;;;4822535;29;20085;-49
2022/08/09 04:55:46;;;;;;;28.55;14.18;;;;;;;;;;4822531;29;20074;-48
2022/08/09 04:58:28;;;;;;;9.85;5.45;;;;;;;;;;4822514;29;20475;-51
2022/08/09 05:01:00;;;;;;;3.97;2.47;;;;;;;;;;4822464;29;20046;-50
2022/08/09 05:03:29;;;;;;;3.42;2.20;;;;;;;;;;4822255;29;20499;-44
2022/08/09 05:06:12;;;;;;;4.88;1.73;;;;;;;;;;4825306;29;20043;-47
2022/08/09 05:08:54;;;;;;;2.42;1.70;;;;;;;;;;4825271;29;20139;-46
2022/08/09 05:11:28;;;;;;;;;;;;;;;;;;4824811;29;20042;-48
2022/08/09 05:13:56;;;;;;;4.72;1.70;;;;;;;;;;4825414;29;20297;-46
2022/08/09 05:16:24;;;;;;;6.15;2.22;;;;;;;;;;4825602;29;20107;-47
2022/08/09 05:18:57;;;;;;;2.47;1.23;;;;;;;;;;4825697;29;20427;-48
2022/08/09 05:21:27;;;;;;;4.57;1.60;;;;;;;;;;4825501;29;20061;-48
2022/08/09 05:24:02;;;;;;;2.47;1.25;;;;;;;;;;4825521;29;20107;-46
2022/08/09 05:26:32;;;;;;;2.88;1.73;;;;;;;;;;4825188;29;20053;-47
2022/08/09 05:29:18;;;;;;;27.80;13.70;;;;;;;;;;4825380;29;20104;-48
2022/08/09 05:31:50;;;;;;;5.35;2.75;;;;;;;;;;4825335;29;20046;-48
2022/08/09 05:34:26;;;;;;;3.00;1.40;;;;;;;;;;4825142;29;20167;-48
2022/08/09 05:37:04;;;;;;;3.17;1.40;;;;;;;;;;4824976;29;20133;-47
2022/08/09 05:39:39;;;;;;;3.72;1.27;;;;;;;;;;4825125;29;20085;-47
2022/08/09 05:42:14;;;;;;;3.30;1.40;;;;;;;;;;4824892;29;20038;-47
2022/08/09 05:44:57;;;;;;;5.18;2.65;;;;;;;;;;4825195;29;20058;-46
2022/08/09 05:47:26;;;;;;;16.17;7.45;;;;;;;;;;4824693;29;20046;-49
2022/08/09 05:49:59;;;;;;;4.18;2.42;;;;;;;;;;4840969;29;20046;-50
2022/08/09 05:52:46;;;;;;;3.28;1.42;;;;;;;;;;4843548;29;20053;-46
2022/08/09 05:55:20;;;;;;;4.53;1.55;;;;;;;;;;4843115;29;20137;-48
2022/08/09 05:57:50;;;;;;;4.18;1.42;;;;;;;;;;4843160;29;20395;-48
2022/08/09 06:00:25;;;;;;;2.38;1.10;;;;;;;;;;4843102;29;20073;-49
2022/08/09 06:03:00;;;;;;;4.50;1.10;;;;;;;;;;4843444;29;20073;-48
2022/08/09 06:05:31;;;;;;;2.00;0.98;;;;;;;;;;4842955;29;20046;-48
2022/08/09 06:08:18;;;;;;;20.45;11.52;;;;;;;;;;4843157;29;20065;-47
2022/08/09 06:10:52;;;;;;;4.63;2.43;;;;;;;;;;4842508;29;20038;-50
2022/08/09 06:13:20;;;;;;;3.53;1.33;;;;;;;;;;4841581;29;20052;-46
2022/08/09 06:15:50;;;;;;;1.42;1.00;;;;;;;;;;4842483;29;20053;-48
2022/08/09 06:18:20;;;;;;;22.02;12.90;;;;;;;;;;4842833;29;20038;-48
2022/08/09 06:20:52;;;;;;;2.38;1.08;;;;;;;;;;4840118;29;20057;-51
2022/08/09 06:23:25;;;;;;;5.22;1.10;;;;;;;;;;4824457;29;20474;-47
2022/08/09 06:26:15;;;;;;;1.50;0.80;;;;;;;;;;4824359;29;20050;-48
2022/08/09 06:28:50;;;;;;;1.58;1.00;;;;;;;;;;4824594;29;20469;-50
2022/08/09 06:31:31;;;;;;;2.05;0.82;;;;;;;;;;4824321;29;20099;-50
2022/08/09 06:34:19;;;;;;;2.08;1.10;;;;;;;;;;4824561;29;20541;-49
2022/08/09 06:36:50;;;;;;;1.90;1.00;;;;;;;;;;4824208;29;20046;-46
2022/08/09 06:39:29;;;;;;;3.47;0.77;;;;;;;;;;4824211;29;20579;-48
2022/08/09 06:42:19;;;;;;;2.72;1.02;;;;;;;;;;4824141;29;20077;-47
2022/08/09 06:44:55;;;;;;;1.52;0.75;;;;;;;;;;4822763;29;20046;-46
2022/08/09 06:47:23;;;;;;;2.10;1.10;;;;;;;;;;4824239;29;20042;-49
2022/08/09 06:49:56;;;;;;;2.13;0.80;;;;;;;;;;4823832;29;20050;-45
2022/08/09 06:52:46;;;;;;;3.95;2.08;;;;;;;;;;4822517;29;20518;-46
2022/08/09 06:55:19;;;;;;;4.13;1.35;;;;;;;;;;4822655;29;20054;-49
2022/08/09 06:57:49;;;;;;;2.42;0.70;;;;;;;;;;4824176;29;20042;-46
2022/08/09 07:00:31;;;;;;;1.42;0.70;;;;;;;;;;4823994;29;20086;-48
2022/08/09 07:03:19;;;;;;;1.88;0.73;;;;;;;;;;4824223;29;20061;-46
2022/08/09 07:05:56;;;;;;;1.45;0.60;;;;;;;;;;4824066;29;20045;-47
2022/08/09 07:08:32;;;;;;;2.30;0.80;;;;;;;;;;4823758;29;20554;-47
2022/08/09 07:11:01;;;;;;;2.17;0.52;;;;;;;;;;4823637;29;20403;-48
2022/08/09 07:13:29;;;;;;;2.88;1.00;;;;;;;;;;4823481;29;20050;-46
2022/08/09 07:16:11;;;;;;;1.75;0.80;;;;;;;;;;4823632;29;20066;-48
2022/08/09 07:18:58;;;;;;;2.22;0.77;;;;;;;;;;4823554;29;20051;-48
2022/08/09 07:21:25;;;;;;;1.25;0.70;;;;;;;;;;4823732;29;20046;-48
2022/08/09 07:23:56;;;;;;;4.45;1.98;;;;;;;;;;4823534;29;20065;-47
2022/08/09 07:26:24;;;;;;;2.05;1.00;;;;;;;;;;4823535;29;20050;-47
2022/08/09 07:28:53;;;;;;;2.67;0.68;;;;;;;;;;4823165;29;20076;-46
2022/08/09 07:31:35;;;;;;;4.00;0.80;;;;;;;;;;4823640;29;20041;-49
2022/08/09 07:34:10;;;;;;;1.33;0.65;;;;;;;;;;4823237;29;20480;-46
2022/08/09 07:36:47;;;;;;;2.03;0.75;;;;;;;;;;4823625;29;20044;-48
2022/08/09 07:39:20;;;;;;;2.83;0.77;;;;;;;;;;4823482;29;20099;-50
2022/08/09 07:42:07;;;;;;;3.05;0.60;;;;;;;;;;4823238;29;20298;-49
2022/08/09 07:44:35;;;;;;;2.00;0.68;;;;;;;;;;4822930;29;20501;-51
2022/08/09 07:47:21;;;;;;;1.42;0.63;;;;;;;;;;4823448;29;20051;-49
2022/08/09 07:49:49;;;;;;;1.98;0.82;;;;;;;;;;4837882;29;20128;-48
2022/08/09 07:52:35;;;;;;;1.58;0.70;;;;;;;;;;4841064;29;20498;-47
2022/08/09 07:55:03;;;;;;;2.85;0.70;;;;;;;;;;4824694;29;20038;-50
2022/08/09 07:57:37;;;;;;;2.15;0.60;;;;;;;;;;4822871;29;20046;-48
2022/08/09 08:00:18;;;;;;;4.65;0.70;;;;;;;;;;4823069;29;20583;-49
2022/08/09 08:03:02;;;;;;;2.67;0.50;;;;;;;;;;4822848;29;20082;-48
2022/08/09 08:05:35;;;;;;;3.85;0.90;;;;;;;;;;4822807;29;20078;-50
2022/08/09 08:08:23;;;;;;;2.10;0.60;;;;;;;;;;4823098;29;20038;-49
2022/08/09 08:11:11;;;;;;;2.85;0.75;;;;;;;;;;4822568;29;20043;-49
2022/08/09 08:13:58;;;;;;;1.35;0.70;;;;;;;;;;4822677;29;20111;-46
2022/08/09 08:16:25;;;;;;;0.95;0.70;;;;;;;;;;4822789;29;20141;-45
2022/08/09 08:18:58;;;;;;;2.38;0.60;;;;;;;;;;4822889;29;20099;-48
2022/08/09 08:21:30;;;;;;;1.55;0.60;;;;;;;;;;4822911;29;20082;-49
2022/08/09 08:23:57;;;;;;;2.63;0.80;;;;;;;;;;4822590;29;20419;-49
2022/08/09 08:26:37;;;;;;;2.58;0.60;;;;;;;;;;4822992;29;20065;-50
2022/08/09 08:29:21;;;;;;;2.05;0.68;;;;;;;;;;4822894;29;20045;-49
2022/08/09 08:31:54;;;;;;;;;;;;;;;;;;4822754;29;20468;-48
2022/08/09 08:34:30;;;;;;;1.23;0.55;;;;;;;;;;4822609;29;20297;-46
2022/08/09 08:36:59;;;;;;;5.78;3.17;;;;;;;;;;4822532;29;20050;-47
2022/08/09 08:39:27;;;;;;;2.80;1.02;;;;;;;;;;4823384;29;20562;-46
2022/08/09 08:41:59;;;;;;;1.30;0.63;;;;;;;;;;4825401;29;20042;-48
2022/08/09 08:44:28;;;;;;;1.23;0.70;;;;;;;;;;4825826;29;20051;-50
2022/08/09 08:47:00;;;;;;;2.17;0.77;;;;;;;;;;4826282;29;20448;-47
2022/08/09 08:49:40;;;;;;;2.38;0.40;;;;;;;;;;4838650;29;20045;-47
2022/08/09 08:52:16;;;;;;;1.77;0.50;;;;;;;;;;4843850;29;20054;-49
2022/08/09 08:55:04;;;;;;;10.13;4.68;;;;;;;;;;4844118;29;20101;-51
2022/08/09 08:57:34;;;;;;;3.08;1.45;;;;;;;;;;4843915;29;20137;-46
2022/08/09 09:00:06;;;;;;;1.67;0.68;;;;;;;;;;4843869;29;20046;-52
2022/08/09 09:02:48;;;;;;;2.15;0.60;;;;;;;;;;4844202;29;20102;-48
2022/08/09 09:05:24;;;;;;;2.30;0.68;;;;;;;;;;4844168;29;20532;-48
2022/08/09 09:08:13;;;;;;;1.25;0.60;;;;;;;;;;4844003;29;20049;-51
2022/08/09 09:11:01;;;;;;;1.92;0.65;;;;;;;;;;4844097;29;20061;-51
2022/08/09 09:13:36;;;;;;;1.65;0.63;;;;;;;;;;4843769;29;20046;-46
2022/08/09 09:16:31;;;;;;;2.42;0.77;;;;;;;;;;4843819;29;20049;-46
2022/08/09 09:19:04;;;;;;;1.40;0.60;;;;;;;;;;4843894;29;20081;-51
2022/08/09 09:22:10;;;;;;;1.90;0.80;;;;;;;;;;4843185;29;20046;-47
2022/08/09 09:24:53;;;;;;;2.60;0.75;;;;;;;;;;4843361;29;20065;-46
2022/08/09 09:27:40;;;;;;;0.75;0.63;;;;;;;;;;4843586;29;20042;-50
2022/08/09 09:30:28;;;;;;;1.88;0.50;;;;;;;;;;4843386;29;20141;-47
2022/08/09 09:33:15;;;;;;;2.53;0.50;;;;;;;;;;4843498;29;20046;-46
2022/08/09 09:36:11;;;;;;;1.55;0.88;;;;;;;;;;4843429;29;20053;-48
2022/08/09 09:39:01;;;;;;;2.05;0.60;;;;;;;;;;4843409;29;20081;-46
2022/08/09 09:41:33;;;;;;;68.07;44.50;;;;;;;;;;4843544;29;20130;-47
2022/08/09 09:44:23;;;;;;;2.08;1.00;;;;;;;;;;4843246;29;20042;-48
2022/08/09 09:47:06;;;;;;;1.45;0.60;;;;;;;;;;4843075;29;20090;-48
2022/08/09 09:49:36;;;;;;;2.05;0.60;;;;;;;;;;4829525;29;20107;-46
2022/08/09 09:52:25;;;;;;;0.50;0.30;;;;;;;;;;4824561;29;20050;-47
2022/08/09 09:55:14;;;;;;;1.00;0.40;;;;;;;;;;4823239;29;20049;-47
2022/08/09 09:58:03;;;;;;;2.30;0.30;;;;;;;;;;4824728;29;20046;-50
2022/08/09 10:00:53;;;;;;;1.45;0.50;;;;;;;;;;4824720;29;20091;-48
2022/08/09 10:03:39;;;;;;;1.35;0.50;;;;;;;;;;4824399;29;20072;-50
2022/08/09 10:06:10;;;;;;;1.02;0.50;;;;;;;;;;4824585;29;20055;-48
2022/08/09 10:08:40;;;;;;;1.42;0.40;;;;;;;;;;4824653;29;20525;-50
2022/08/09 10:11:25;;;;;;;2.20;0.60;;;;;;;;;;4824635;29;20054;-49
2022/08/09 10:14:26;;;;;;;5.43;3.33;;;;;;;;;;4824083;29;20355;-49
2022/08/09 10:17:09;;;;;;;1.95;0.85;;;;;;;;;;4824642;29;20051;-48
2022/08/09 10:19:57;;;;;;;1.73;0.60;;;;;;;;;;4823548;29;20047;-49
2022/08/09 10:22:36;;;;;;;1.17;0.63;;;;;;;;;;4823856;29;20418;-48
2022/08/09 10:25:08;;;;;;;1.58;0.50;;;;;;;;;;4824508;29;20042;-47
2022/08/09 10:27:44;;;;;;;1.42;0.50;;;;;;;;;;4824068;29;20050;-51
2022/08/09 10:30:26;;;;;;;1.23;0.50;;;;;;;;;;4824005;29;20508;-51
2022/08/09 10:33:16;;;;;;;1.15;0.60;;;;;;;;;;4823406;29;20046;-46
2022/08/09 10:36:06;;;;;;;2.13;0.45;;;;;;;;;;4824111;29;20050;-50
2022/08/09 10:38:40;;;;;;;27.30;18.45;;;;;;;;;;4824154;29;20117;-47
2022/08/09 10:41:25;;;;;;;1.55;0.70;;;;;;;;;;4823902;29;20179;-46
2022/08/09 10:43:55;;;;;;;2.92;0.60;;;;;;;;;;4823771;29;20518;-49
2022/08/09 10:46:53;;;;;;;0.82;0.50;;;;;;;;;;4823898;29;20046;-50
2022/08/09 10:49:59;;;;;;;1.08;0.50;;;;;;;;;;4836016;29;20131;-49
2022/08/09 10:52:44;;;;;;;1.88;0.70;;;;;;;;;;4833895;29;20062;-49
2022/08/09 10:55:25;;;;;;;1.42;0.65;;;;;;;;;;4841924;29;20057;-49
2022/08/09 10:57:57;;;;;;;0.88;0.40;;;;;;;;;;4841656;29;20418;-50
2022/08/09 11:00:35;;;;;;;1.35;0.50;;;;;;;;;;4841926;29;20042;-49
2022/08/09 11:03:28;;;;;;;1.73;0.38;;;;;;;;;;4841209;29;20077;-48
2022/08/09 11:06:17;;;;;;;1.17;0.40;;;;;;;;;;4841654;29;20069;-50
2022/08/09 11:08:48;;;;;;;1.02;0.60;;;;;;;;;;4841943;29;20526;-47
2022/08/09 11:11:22;;;;;;;1.52;0.70;;;;;;;;;;4829689;29;20050;-49
2022/08/09 11:14:28;;;;;;;1.48;0.50;;;;;;;;;;4823476;29;20054;-47
2022/08/09 11:16:58;;;;;;;0.50;0.50;;;;;;;;;;4823146;29;20053;-45
2022/08/09 11:19:50;;;;;;;1.33;0.50;;;;;;;;;;4823228;29;20107;-49
2022/08/09 11:22:40;;;;;;;5.18;0.50;;;;;;;;;;4823127;29;20061;-46
2022/08/09 11:25:14;;;;;;;1.45;0.50;;;;;;;;;;4823420;29;20049;-46
2022/08/09 11:27:43;;;;;;;2.08;0.43;;;;;;;;;;4823236;29;20137;-43
2022/08/09 11:30:35;;;;;;;28.50;12.73;;;;;;;;;;4823515;29;20054;-45
2022/08/09 11:33:23;;;;;;;4.05;1.13;;;;;;;;;;4823228;29;20053;-54
2022/08/09 11:36:00;;;;;;;1.77;0.70;;;;;;;;;;4805083;29;20042;-47
2022/08/09 11:38:32;;;;;;;1.20;0.60;;;;;;;;;;4804583;29;20043;-47
2022/08/09 11:41:27;;;;;;;2.08;0.80;;;;;;;;;;4818943;29;20103;-49
2022/08/09 11:44:04;;;;;;;0.90;0.50;;;;;;;;;;4804532;29;20061;-47
2022/08/09 11:46:56;;;;;;;1.90;0.70;;;;;;;;;;4805091;29;20053;-48
2022/08/09 11:50:00;;;;;;;1.48;0.52;;;;;;;;;;4828350;29;20401;-47
2022/08/09 11:53:02;;;;;;;1.70;0.85;;;;;;;;;;4841195;29;20042;-47
2022/08/09 11:55:55;;;;;;;1.30;0.60;;;;;;;;;;4840068;29;20073;-48
2022/08/09 11:58:29;;;;;;;0.73;0.40;;;;;;;;;;4822850;29;20050;-46
2022/08/09 12:01:08;;;;;;;4.28;1.88;;;;;;;;;;4823255;29;20050;-47
2022/08/09 12:04:00;;;;;;;74.90;35.97;;;;;;;;;;4822947;29;20079;-45
2022/08/09 12:06:32;;;;;;;24.60;18.48;;;;;;;;;;4822676;29;20053;-46
2022/08/09 12:09:06;;;;;;;4.40;2.90;;;;;;;;;;4823219;29;20057;-48
2022/08/09 12:12:01;;;;;;;1.55;0.88;;;;;;;;;;4822411;29;20070;-47
2022/08/09 12:14:33;;;;;;;2.22;0.40;;;;;;;;;;4826419;29;20054;-47
2022/08/09 12:17:20;;;;;;;1.05;0.40;;;;;;;;;;4828506;29;20049;-49
2022/08/09 12:20:19;;;;;;;0.68;0.40;;;;;;;;;;4829031;29;20558;-47
2022/08/09 12:22:59;;;;;;;1.60;0.50;;;;;;;;;;4828137;29;20507;-48
2022/08/09 12:25:31;;;;;;;0.88;0.43;;;;;;;;;;4828026;29;20046;-49
2022/08/09 12:28:08;;;;;;;1.52;0.70;;;;;;;;;;4827636;29;20058;-49
2022/08/09 12:30:56;;;;;;;2.20;0.60;;;;;;;;;;4828933;29;20057;-46
2022/08/09 12:33:24;;;;;;;1.15;0.50;;;;;;;;;;4828577;29;20050;-48
2022/08/09 12:36:11;;;;;;;2.25;0.43;;;;;;;;;;4826838;29;20042;-48
2022/08/09 12:38:58;;;;;;;0.43;0.40;;;;;;;;;;4826967;29;20058;-50
2022/08/09 12:41:31;;;;;;;1.10;0.55;;;;;;;;;;4826787;29;20460;-50
2022/08/09 12:44:05;;;;;;;0.90;0.47;;;;;;;;;;4826952;29;20077;-47
2022/08/09 12:46:43;;;;;;;0.95;0.40;;;;;;;;;;4826999;29;20099;-48
2022/08/09 12:49:16;;;;;;;3.20;0.40;;;;;;;;;;4827386;29;20051;-49
2022/08/09 12:51:56;;;;;;;0.68;0.30;;;;;;;;;;4828568;29;20452;-49
2022/08/09 12:54:50;;;;;;;2.42;0.75;;;;;;;;;;4828513;29;20050;-50
2022/08/09 12:57:42;;;;;;;0.98;0.52;;;;;;;;;;4828802;29;20042;-48
2022/08/09 13:00:20;;;;;;;0.50;0.40;;;;;;;;;;4811616;29;20131;-46
2022/08/09 13:02:56;;;;;;;1.50;0.50;;;;;;;;;;4828180;29;20046;-48
2022/08/09 13:05:26;;;;;;;4.03;0.40;;;;;;;;;;4828672;29;20506;-47
2022/08/09 13:08:16;;;;;;;0.30;0.30;;;;;;;;;;4828181;29;20038;-47
2022/08/09 13:11:01;;;;;;;0.85;0.43;;;;;;;;;;4826898;29;20039;-47
2022/08/09 13:13:54;;;;;;;61.97;41.92;;;;;;;;;;4828331;29;20046;-48
2022/08/09 13:16:49;;;;;;;17.00;7.80;;;;;;;;;;4828543;29;20058;-49
2022/08/09 13:19:31;;;;;;;2.83;0.95;;;;;;;;;;4828439;29;20053;-47
2022/08/09 13:22:22;;;;;;;1.63;0.50;;;;;;;;;;4828117;29;20103;-47
2022/08/09 13:25:09;;;;;;;0.40;0.32;;;;;;;;;;4825338;29;20057;-48
2022/08/09 13:27:41;;;;;;;2.28;0.60;;;;;;;;;;4825461;29;20137;-50
2022/08/09 13:30:23;;;;;;;1.38;0.40;;;;;;;;;;4825424;29;20046;-50
2022/08/09 13:33:21;;;;;;;2.08;0.40;;;;;;;;;;4825422;29;20107;-48
2022/08/09 13:35:48;;;;;;;0.80;0.40;;;;;;;;;;4825404;29;20069;-49
2022/08/09 13:38:36;;;;;;;1.35;0.60;;;;;;;;;;4825276;29;20048;-47
2022/08/09 13:41:24;;;;;;;4.10;1.50;;;;;;;;;;4824349;29;20046;-44
2022/08/09 13:44:11;;;;;;;1.85;0.80;;;;;;;;;;4825243;29;20047;-46
2022/08/09 13:46:45;;;;;;;3.00;0.50;;;;;;;;;;4824431;29;20495;-49
2022/08/09 13:49:34;;;;;;;2.50;0.60;;;;;;;;;;4824434;29;20137;-49
2022/08/09 13:52:23;;;;;;;0.40;0.40;;;;;;;;;;4806925;29;20553;-49
2022/08/09 13:54:51;;;;;;;0.88;0.47;;;;;;;;;;4806770;29;20507;-49
2022/08/09 13:57:36;;;;;;;0.80;0.35;;;;;;;;;;4807189;29;20053;-48
2022/08/09 14:00:09;;;;;;;0.85;0.40;;;;;;;;;;4807164;29;20408;-48
2022/08/09 14:02:40;;;;;;;0.70;0.50;;;;;;;;;;4806161;29;20551;-49
2022/08/09 14:05:28;;;;;;;1.10;0.57;;;;;;;;;;4806528;29;20039;-49
2022/08/09 14:08:15;;;;;;;1.08;0.60;;;;;;;;;;4806737;29;20145;-48
2022/08/09 14:10:45;;;;;;;2.15;0.70;;;;;;;;;;4806943;29;20449;-47
2022/08/09 14:13:24;;;;;;;1.20;0.50;;;;;;;;;;4806334;29;20145;-47
2022/08/09 14:16:15;;;;;;;1.20;0.40;;;;;;;;;;4806502;29;20073;-51
2022/08/09 14:18:44;;;;;;;1.05;0.40;;;;;;;;;;4806489;29;20072;-48
2022/08/09 14:21:22;;;;;;;1.58;0.50;;;;;;;;;;4806274;29;20600;-48
2022/08/09 14:23:52;;;;;;;4.90;0.60;;;;;;;;;;4806473;29;20138;-51
2022/08/09 14:26:29;;;;;;;;;;;;;;;;;;4806645;29;20448;-47
2022/08/09 14:29:01;;;;;;;2.10;0.85;;;;;;;;;;4806443;29;19936;-46
2022/08/09 14:31:30;;;;;;;1.45;0.50;;;;;;;;;;4806461;29;20887;-51
2022/08/09 14:34:16;;;;;;;2.08;0.85;;;;;;;;;;4809209;29;20525;-51
2022/08/09 14:37:00;;;;;;;0.98;0.60;;;;;;;;;;4823449;29;20071;-50
2022/08/09 14:39:28;;;;;;;1.58;0.60;;;;;;;;;;4824217;29;20402;-50
2022/08/09 14:42:18;;;;;;;1.73;0.70;;;;;;;;;;4824322;29;20082;-50
2022/08/09 14:45:04;;;;;;;1.90;0.50;;;;;;;;;;4824190;29;20047;-47
2022/08/09 14:47:52;;;;;;;0.60;0.40;;;;;;;;;;4823908;29;20378;-50
2022/08/09 14:50:30;;;;;;;2.95;1.45;;;;;;;;;;4842386;29;20046;-48
2022/08/09 14:53:01;;;;;;;12.48;5.15;;;;;;;;;;4842052;29;20054;-45
2022/08/09 14:55:32;;;;;;;1.30;0.63;;;;;;;;;;4842180;29;20486;-46
2022/08/09 14:58:05;;;;;;;0.60;0.50;;;;;;;;;;4841424;29;20119;-49
2022/08/09 15:00:35;;;;;;;0.75;0.50;;;;;;;;;;4841672;29;20170;-47
2022/08/09 15:03:09;;;;;;;0.65;0.40;;;;;;;;;;4842295;29;20583;-50
2022/08/09 15:05:37;;;;;;;3.45;0.40;;;;;;;;;;4842194;29;20045;-48
2022/08/09 15:08:06;;;;;;;1.20;0.60;;;;;;;;;;4842429;29;20038;-47
2022/08/09 15:10:37;;;;;;;0.77;0.50;;;;;;;;;;4842217;29;20117;-49
2022/08/09 15:13:05;;;;;;;1.30;0.40;;;;;;;;;;4842139;29;20096;-50
2022/08/09 15:15:35;;;;;;;0.95;0.40;;;;;;;;;;4842149;29;20042;-47
2022/08/09 15:18:06;;;;;;;1.35;0.60;;;;;;;;;;4842162;29;20586;-48
2022/08/09 15:20:41;;;;;;;1.08;0.40;;;;;;;;;;4841876;29;20160;-47
2022/08/09 15:23:28;;;;;;;1.00;0.43;;;;;;;;;;4841764;29;20050;-46
2022/08/09 15:26:15;;;;;;;1.70;0.40;;;;;;;;;;4841419;29;20042;-50
2022/08/09 15:28:57;;;;;;;2.85;0.40;;;;;;;;;;4841592;29;20045;-47
2022/08/09 15:31:32;;;;;;;2.60;0.50;;;;;;;;;;4841833;29;20073;-48
2022/08/09 15:34:09;;;;;;;1.73;0.70;;;;;;;;;;4842039;29;20042;-48
2022/08/09 15:36:57;;;;;;;0.77;0.38;;;;;;;;;;4841475;29;20094;-46
2022/08/09 15:39:25;;;;;;;1.63;0.50;;;;;;;;;;4841696;29;20462;-49
2022/08/09 15:42:01;;;;;;;0.60;0.40;;;;;;;;;;4841578;29;20136;-48
2022/08/09 15:44:31;;;;;;;1.35;0.50;;;;;;;;;;4841612;29;20098;-52
2022/08/09 15:46:59;;;;;;;3.13;0.70;;;;;;;;;;4840023;29;20064;-47
2022/08/09 15:49:26;;;;;;;1.83;0.60;;;;;;;;;;4828665;29;20043;-52
2022/08/09 15:51:56;;;;;;;1.25;0.60;;;;;;;;;;4823394;29;20046;-48